CheckWX is a tool to help pilots better visualize weather data.  It is not intended as a substitute for an official pre-flight weather briefing.

20:03:01 UTC

KSGJ METAR
Northeast Florida Regional Airport
St Augustine, Florida, USA
Current

7 mins ago

KSGJ 261956Z 33009KT 10SM CLR 17/01 A3005 RMK AO2 SLP176 T01720011 $
Observed
Jan-26 @ 19:56 UTC
Wind
  • 330° at 9 KTS
Visibility
10 SM
Flight Rules
VFR
Cloud Levels
  • Clear skies
Temperature
17°C / 63°F
Dewpoint
C / 34°F
Humidity
34%
Altimeter
30.05" Hg
Pressure
1017.62 hPa
Previous

1 hour ago

KSGJ 261856Z 31004KT 10SM CLR 16/03 A3007 RMK AO2 SLP183 T01610028 $
Observed
Jan-26 @ 18:56 UTC
Wind
  • 310° at 4 KTS
Visibility
10 SM
Flight Rules
VFR
Cloud Levels
  • Clear skies
Temperature
16°C / 61°F
Dewpoint
C / 37°F
Humidity
42%
Altimeter
30.07" Hg
Pressure
1018.32 hPa
Previous

2 hours ago

KSGJ 261756Z 28007KT 10SM CLR 16/02 A3011 RMK AO2 SLP194 T01610022 10161 20061 58016 $
Observed
Jan-26 @ 17:56 UTC
Wind
  • 280° at 7 KTS
Visibility
10 SM
Flight Rules
VFR
Cloud Levels
  • Clear skies
Temperature
16°C / 61°F
Dewpoint
C / 36°F
Humidity
39%
Altimeter
30.11" Hg
Pressure
1019.62 hPa